sensor_id;sensor_type;location;lat;lon;timestamp;pressure;altitude;pressure_sealevel;temperature;humidity
67397;BME280;57728;50.448;18.824;2023-01-15T00:01:39;97249.03;;;6.52;58.46
67397;BME280;57728;50.448;18.824;2023-01-15T00:03:42;97247.91;;;6.60;58.34
67397;BME280;57728;50.448;18.824;2023-01-15T00:05:43;97253.13;;;6.62;58.10
67397;BME280;57728;50.448;18.824;2023-01-15T00:07:46;97262.63;;;6.64;58.14
67397;BME280;57728;50.448;18.824;2023-01-15T00:09:48;97258.44;;;6.68;58.08
67397;BME280;57728;50.448;18.824;2023-01-15T00:11:50;97266.09;;;6.71;57.71
67397;BME280;57728;50.448;18.824;2023-01-15T00:13:51;97247.16;;;6.71;58.01
67397;BME280;57728;50.448;18.824;2023-01-15T00:15:53;97242.94;;;6.76;57.48
67397;BME280;57728;50.448;18.824;2023-01-15T00:18:02;97249.78;;;6.78;57.64
67397;BME280;57728;50.448;18.824;2023-01-15T00:20:04;97245.44;;;6.77;57.37
67397;BME280;57728;50.448;18.824;2023-01-15T00:22:06;97242.72;;;6.77;57.45
67397;BME280;57728;50.448;18.824;2023-01-15T00:24:08;97236.94;;;6.74;57.30
67397;BME280;57728;50.448;18.824;2023-01-15T00:26:30;97241.91;;;6.77;57.34
67397;BME280;57728;50.448;18.824;2023-01-15T00:28:53;97229.06;;;6.72;57.46
67397;BME280;57728;50.448;18.824;2023-01-15T00:30:54;97227.56;;;6.76;57.31
67397;BME280;57728;50.448;18.824;2023-01-15T00:32:57;97229.28;;;6.70;57.15
67397;BME280;57728;50.448;18.824;2023-01-15T00:35:00;97218.25;;;6.72;56.96
67397;BME280;57728;50.448;18.824;2023-01-15T00:37:02;97168.91;;;6.40;57.04
67397;BME280;57728;50.448;18.824;2023-01-15T00:39:07;97224.25;;;6.74;57.16
67397;BME280;57728;50.448;18.824;2023-01-15T00:41:09;97209.09;;;6.73;57.00
67397;BME280;57728;50.448;18.824;2023-01-15T00:43:10;97203.06;;;6.71;56.93
67397;BME280;57728;50.448;18.824;2023-01-15T00:45:11;97202.81;;;6.72;56.82
67397;BME280;57728;50.448;18.824;2023-01-15T00:47:14;97206.16;;;6.75;56.69
67397;BME280;57728;50.448;18.824;2023-01-15T00:49:15;97194.72;;;6.72;56.79
67397;BME280;57728;50.448;18.824;2023-01-15T00:51:17;97203.06;;;6.71;56.70
67397;BME280;57728;50.448;18.824;2023-01-15T00:53:21;97195.16;;;6.69;56.72
67397;BME280;57728;50.448;18.824;2023-01-15T00:55:22;97194.72;;;6.72;56.74
67397;BME280;57728;50.448;18.824;2023-01-15T00:57:23;97174.34;;;6.70;56.71
67397;BME280;57728;50.448;18.824;2023-01-15T00:59:26;97167.91;;;6.71;56.60
67397;BME280;57728;50.448;18.824;2023-01-15T01:01:27;97166.00;;;6.71;56.78
67397;BME280;57728;50.448;18.824;2023-01-15T01:03:29;97097.63;;;6.34;56.80
67397;BME280;57728;50.448;18.824;2023-01-15T01:05:31;97157.69;;;6.73;56.58
67397;BME280;57728;50.448;18.824;2023-01-15T01:07:33;97158.72;;;6.72;56.65
67397;BME280;57728;50.448;18.824;2023-01-15T01:09:34;97144.59;;;6.70;56.74
67397;BME280;57728;50.448;18.824;2023-01-15T01:11:36;97138.00;;;6.66;56.62
67397;BME280;57728;50.448;18.824;2023-01-15T01:13:38;97152.13;;;6.68;56.65
67397;BME280;57728;50.448;18.824;2023-01-15T01:15:39;97145.66;;;6.69;56.53
67397;BME280;57728;50.448;18.824;2023-01-15T01:17:41;97149.78;;;6.71;56.70
67397;BME280;57728;50.448;18.824;2023-01-15T01:19:43;97134.00;;;6.68;56.65
67397;BME280;57728;50.448;18.824;2023-01-15T01:21:46;97141.88;;;6.70;56.62
67397;BME280;57728;50.448;18.824;2023-01-15T01:23:49;97152.47;;;6.71;56.71
67397;BME280;57728;50.448;18.824;2023-01-15T01:25:50;97139.56;;;6.74;56.68
67397;BME280;57728;50.448;18.824;2023-01-15T01:27:52;97137.69;;;6.74;56.68
67397;BME280;57728;50.448;18.824;2023-01-15T01:29:55;97122.72;;;6.71;56.60
67397;BME280;57728;50.448;18.824;2023-01-15T01:31:56;97116.50;;;6.71;56.65
67397;BME280;57728;50.448;18.824;2023-01-15T01:33:58;97119.19;;;6.71;56.59
67397;BME280;57728;50.448;18.824;2023-01-15T01:36:00;97115.91;;;6.69;56.88
67397;BME280;57728;50.448;18.824;2023-01-15T01:38:02;97101.19;;;6.65;56.79
67397;BME280;57728;50.448;18.824;2023-01-15T01:40:04;97037.53;;;6.32;57.00
67397;BME280;57728;50.448;18.824;2023-01-15T01:42:12;97098.50;;;6.65;56.82
67397;BME280;57728;50.448;18.824;2023-01-15T01:46:35;97093.31;;;6.63;56.96
67397;BME280;57728;50.448;18.824;2023-01-15T01:48:37;97084.97;;;6.65;56.99
67397;BME280;57728;50.448;18.824;2023-01-15T01:50:40;97079.09;;;6.68;56.91
67397;BME280;57728;50.448;18.824;2023-01-15T01:52:48;97072.63;;;6.69;56.82
67397;BME280;57728;50.448;18.824;2023-01-15T01:54:58;97056.25;;;6.64;57.01
67397;BME280;57728;50.448;18.824;2023-01-15T01:57:04;97071.94;;;6.74;57.13
67397;BME280;57728;50.448;18.824;2023-01-15T01:59:08;97044.50;;;6.70;56.79
67397;BME280;57728;50.448;18.824;2023-01-15T02:01:11;97073.84;;;6.73;56.84
67397;BME280;57728;50.448;18.824;2023-01-15T02:03:13;96998.81;;;6.38;56.76
67397;BME280;57728;50.448;18.824;2023-01-15T02:05:25;97070.66;;;6.76;56.70
67397;BME280;57728;50.448;18.824;2023-01-15T02:07:31;97038.38;;;6.63;56.75
67397;BME280;57728;50.448;18.824;2023-01-15T02:09:34;97066.69;;;6.79;56.66
67397;BME280;57728;50.448;18.824;2023-01-15T02:11:36;97045.38;;;6.82;56.57
67397;BME280;57728;50.448;18.824;2023-01-15T02:13:52;97060.34;;;6.85;56.77
67397;BME280;57728;50.448;18.824;2023-01-15T02:17:05;97058.44;;;6.85;56.60
67397;BME280;57728;50.448;18.824;2023-01-15T02:18:50;97045.53;;;6.87;56.52
67397;BME280;57728;50.448;18.824;2023-01-15T02:21:03;97029.28;;;6.87;56.43
67397;BME280;57728;50.448;18.824;2023-01-15T02:28:38;97024.22;;;6.91;56.38
67397;BME280;57728;50.448;18.824;2023-01-15T02:30:48;97016.34;;;6.89;56.54
67397;BME280;57728;50.448;18.824;2023-01-15T02:33:11;97012.44;;;6.85;56.28
67397;BME280;57728;50.448;18.824;2023-01-15T02:35:56;97036.38;;;7.00;56.26
67397;BME280;57728;50.448;18.824;2023-01-15T02:38:14;97030.25;;;7.05;56.11
67397;BME280;57728;50.448;18.824;2023-01-15T02:40:25;97043.09;;;7.10;56.10
67397;BME280;57728;50.448;18.824;2023-01-15T02:42:30;97028.16;;;7.07;55.94
67397;BME280;57728;50.448;18.824;2023-01-15T02:44:40;97030.97;;;7.12;55.94
67397;BME280;57728;50.448;18.824;2023-01-15T02:46:49;97033.22;;;7.15;56.01
67397;BME280;57728;50.448;18.824;2023-01-15T02:48:53;97028.03;;;7.14;55.84
67397;BME280;57728;50.448;18.824;2023-01-15T02:51:10;97029.59;;;7.21;55.88
67397;BME280;57728;50.448;18.824;2023-01-15T02:53:27;97021.22;;;7.23;55.62
67397;BME280;57728;50.448;18.824;2023-01-15T02:55:38;97016.28;;;7.20;55.70
67397;BME280;57728;50.448;18.824;2023-01-15T02:57:46;97014.38;;;7.20;55.65
67397;BME280;57728;50.448;18.824;2023-01-15T02:59:56;97013.09;;;7.11;55.51
67397;BME280;57728;50.448;18.824;2023-01-15T03:02:07;97022.28;;;7.22;55.59
67397;BME280;57728;50.448;18.824;2023-01-15T03:04:34;97016.06;;;7.21;55.54
67397;BME280;57728;50.448;18.824;2023-01-15T03:06:58;97029.69;;;7.27;55.66
67397;BME280;57728;50.448;18.824;2023-01-15T03:09:08;97012.63;;;7.26;55.58
67397;BME280;57728;50.448;18.824;2023-01-15T03:11:18;97019.94;;;7.26;55.40
67397;BME280;57728;50.448;18.824;2023-01-15T03:13:49;97030.88;;;7.31;55.32
67397;BME280;57728;50.448;18.824;2023-01-15T03:16:27;97008.63;;;7.29;55.27
67397;BME280;57728;50.448;18.824;2023-01-15T03:21:31;96998.03;;;7.39;55.01
67397;BME280;57728;50.448;18.824;2023-01-15T03:23:54;97011.69;;;7.44;54.99
67397;BME280;57728;50.448;18.824;2023-01-15T03:26:00;96993.78;;;7.43;54.95
67397;BME280;57728;50.448;18.824;2023-01-15T03:28:04;97001.56;;;7.51;54.67
67397;BME280;57728;50.448;18.824;2023-01-15T03:30:14;96994.88;;;7.54;54.79
67397;BME280;57728;50.448;18.824;2023-01-15T03:32:19;97002.03;;;7.60;54.69
67397;BME280;57728;50.448;18.824;2023-01-15T03:34:24;96945.16;;;7.36;54.81
67397;BME280;57728;50.448;18.824;2023-01-15T03:36:30;97004.63;;;7.67;54.54
67397;BME280;57728;50.448;18.824;2023-01-15T03:38:38;96988.50;;;7.72;54.42
67397;BME280;57728;50.448;18.824;2023-01-15T03:43:00;96961.97;;;7.74;54.46
67397;BME280;57728;50.448;18.824;2023-01-15T03:45:34;96973.69;;;7.91;54.20
67397;BME280;57728;50.448;18.824;2023-01-15T03:48:00;96967.34;;;7.98;54.16
67397;BME280;57728;50.448;18.824;2023-01-15T03:55:24;96969.88;;;8.16;54.39
67397;BME280;57728;50.448;18.824;2023-01-15T03:57:58;96974.31;;;8.22;54.41
67397;BME280;57728;50.448;18.824;2023-01-15T04:00:12;96966.84;;;8.30;54.42
67397;BME280;57728;50.448;18.824;2023-01-15T04:02:24;96966.72;;;8.36;54.40
67397;BME280;57728;50.448;18.824;2023-01-15T04:04:28;96962.22;;;8.42;54.64
67397;BME280;57728;50.448;18.824;2023-01-15T04:06:35;96957.97;;;8.46;54.90
67397;BME280;57728;50.448;18.824;2023-01-15T04:08:41;96939.94;;;8.40;55.02
67397;BME280;57728;50.448;18.824;2023-01-15T04:10:54;96953.72;;;8.50;55.73
67397;BME280;57728;50.448;18.824;2023-01-15T04:13:00;96962.66;;;8.51;55.88
67397;BME280;57728;50.448;18.824;2023-01-15T04:15:02;96948.28;;;8.50;55.97
67397;BME280;57728;50.448;18.824;2023-01-15T04:17:04;96943.44;;;8.52;56.54
67397;BME280;57728;50.448;18.824;2023-01-15T04:19:06;96951.31;;;8.54;56.61
67397;BME280;57728;50.448;18.824;2023-01-15T04:21:09;96945.44;;;8.57;56.97
67397;BME280;57728;50.448;18.824;2023-01-15T04:23:12;96931.66;;;8.47;57.50
67397;BME280;57728;50.448;18.824;2023-01-15T04:25:13;96946.34;;;8.63;57.55
67397;BME280;57728;50.448;18.824;2023-01-15T04:27:15;96956.09;;;8.64;57.75
67397;BME280;57728;50.448;18.824;2023-01-15T04:29:17;96952.56;;;8.63;57.91
67397;BME280;57728;50.448;18.824;2023-01-15T04:31:19;96947.97;;;8.64;58.22
67397;BME280;57728;50.448;18.824;2023-01-15T04:33:21;96947.97;;;8.64;58.65
67397;BME280;57728;50.448;18.824;2023-01-15T04:35:23;96943.63;;;8.63;58.67
67397;BME280;57728;50.448;18.824;2023-01-15T04:37:24;96943.03;;;8.60;59.11
67397;BME280;57728;50.448;18.824;2023-01-15T04:39:26;96938.19;;;8.63;59.00
67397;BME280;57728;50.448;18.824;2023-01-15T04:41:28;96939.16;;;8.56;59.57
67397;BME280;57728;50.448;18.824;2023-01-15T04:43:48;96939.41;;;8.55;60.17
67397;BME280;57728;50.448;18.824;2023-01-15T04:46:08;96933.97;;;8.55;60.08
67397;BME280;57728;50.448;18.824;2023-01-15T04:48:11;96931.88;;;8.57;60.52
67397;BME280;57728;50.448;18.824;2023-01-15T04:50:12;96929.06;;;8.52;60.37
67397;BME280;57728;50.448;18.824;2023-01-15T04:52:14;96934.13;;;8.48;60.34
67397;BME280;57728;50.448;18.824;2023-01-15T04:54:17;96922.59;;;8.41;60.28
67397;BME280;57728;50.448;18.824;2023-01-15T04:56:18;96940.91;;;8.34;60.38
67397;BME280;57728;50.448;18.824;2023-01-15T04:58:20;96912.06;;;8.27;60.23
67397;BME280;57728;50.448;18.824;2023-01-15T05:00:22;96911.88;;;8.17;60.19
67397;BME280;57728;50.448;18.824;2023-01-15T05:02:23;96916.69;;;8.15;60.12
67397;BME280;57728;50.448;18.824;2023-01-15T05:04:25;96914.72;;;8.11;60.08
67397;BME280;57728;50.448;18.824;2023-01-15T05:06:27;96882.72;;;7.96;59.92
67397;BME280;57728;50.448;18.824;2023-01-15T05:08:31;96905.09;;;8.03;59.78
67397;BME280;57728;50.448;18.824;2023-01-15T05:10:32;96901.56;;;8.02;59.72
67397;BME280;57728;50.448;18.824;2023-01-15T05:12:34;96901.00;;;8.00;59.54
67397;BME280;57728;50.448;18.824;2023-01-15T05:14:36;96915.25;;;7.96;59.46
67397;BME280;57728;50.448;18.824;2023-01-15T05:16:37;96896.88;;;7.98;59.41
67397;BME280;57728;50.448;18.824;2023-01-15T05:18:41;96911.47;;;7.97;59.24
67397;BME280;57728;50.448;18.824;2023-01-15T05:20:42;96906.88;;;7.97;59.19
67397;BME280;57728;50.448;18.824;2023-01-15T05:22:44;96906.53;;;7.94;58.92
67397;BME280;57728;50.448;18.824;2023-01-15T05:24:46;96891.44;;;7.98;59.01
67397;BME280;57728;50.448;18.824;2023-01-15T05:26:47;96892.03;;;8.00;58.68
67397;BME280;57728;50.448;18.824;2023-01-15T05:28:52;96895.31;;;8.02;58.53
67397;BME280;57728;50.448;18.824;2023-01-15T05:30:55;96883.56;;;7.96;58.40
67397;BME280;57728;50.448;18.824;2023-01-15T05:32:56;96884.88;;;7.94;58.34
67397;BME280;57728;50.448;18.824;2023-01-15T05:34:57;96890.16;;;8.00;58.34
67397;BME280;57728;50.448;18.824;2023-01-15T05:37:00;96891.53;;;8.03;58.02
67397;BME280;57728;50.448;18.824;2023-01-15T05:39:01;96895.88;;;8.04;57.96
67397;BME280;57728;50.448;18.824;2023-01-15T05:41:04;96894.84;;;8.05;58.07
67397;BME280;57728;50.448;18.824;2023-01-15T05:43:26;96886.22;;;8.08;58.02
67397;BME280;57728;50.448;18.824;2023-01-15T05:45:27;96892.19;;;8.10;58.06
67397;BME280;57728;50.448;18.824;2023-01-15T05:47:28;96880.28;;;8.11;58.04
67397;BME280;57728;50.448;18.824;2023-01-15T05:49:31;96882.88;;;8.18;57.89
67397;BME280;57728;50.448;18.824;2023-01-15T05:51:33;96868.97;;;8.14;57.84
67397;BME280;57728;50.448;18.824;2023-01-15T05:53:36;96865.84;;;8.22;57.77
67397;BME280;57728;50.448;18.824;2023-01-15T05:55:38;96868.56;;;8.22;57.59
67397;BME280;57728;50.448;18.824;2023-01-15T05:57:39;96872.13;;;8.23;57.43
67397;BME280;57728;50.448;18.824;2023-01-15T05:59:40;96884.28;;;8.20;57.29
67397;BME280;57728;50.448;18.824;2023-01-15T06:01:43;96866.88;;;8.04;57.43
67397;BME280;57728;50.448;18.824;2023-01-15T06:03:44;96869.56;;;8.16;57.38
67397;BME280;57728;50.448;18.824;2023-01-15T06:05:54;96877.44;;;8.18;57.34
67397;BME280;57728;50.448;18.824;2023-01-15T06:07:57;96878.25;;;8.18;57.32
67397;BME280;57728;50.448;18.824;2023-01-15T06:09:58;96886.16;;;8.20;57.42
67397;BME280;57728;50.448;18.824;2023-01-15T06:11:59;96882.28;;;8.16;57.37
67397;BME280;57728;50.448;18.824;2023-01-15T06:14:01;96890.66;;;8.14;57.13
67397;BME280;57728;50.448;18.824;2023-01-15T06:16:03;96893.59;;;8.13;57.11
67397;BME280;57728;50.448;18.824;2023-01-15T06:18:05;96889.59;;;8.15;57.36
67397;BME280;57728;50.448;18.824;2023-01-15T06:20:08;96889.09;;;8.18;57.41
67397;BME280;57728;50.448;18.824;2023-01-15T06:22:11;96902.66;;;8.18;57.21
67397;BME280;57728;50.448;18.824;2023-01-15T06:24:12;96893.84;;;8.11;57.14
67397;BME280;57728;50.448;18.824;2023-01-15T06:26:17;96896.00;;;8.09;57.24
67397;BME280;57728;50.448;18.824;2023-01-15T06:28:18;96900.75;;;8.02;57.47
67397;BME280;57728;50.448;18.824;2023-01-15T06:30:20;96880.59;;;7.98;57.44
67397;BME280;57728;50.448;18.824;2023-01-15T06:32:22;96892.69;;;8.07;57.42
67397;BME280;57728;50.448;18.824;2023-01-15T06:34:23;96880.22;;;8.06;57.48
67397;BME280;57728;50.448;18.824;2023-01-15T06:36:26;96882.22;;;7.99;57.27
67397;BME280;57728;50.448;18.824;2023-01-15T06:38:30;96891.28;;;8.04;57.47
67397;BME280;57728;50.448;18.824;2023-01-15T06:40:31;96880.13;;;8.01;57.50
67397;BME280;57728;50.448;18.824;2023-01-15T06:42:32;96870.63;;;7.86;57.53
67397;BME280;57728;50.448;18.824;2023-01-15T06:44:53;96877.69;;;7.87;57.65
67397;BME280;57728;50.448;18.824;2023-01-15T06:47:15;96885.13;;;7.92;57.68
67397;BME280;57728;50.448;18.824;2023-01-15T06:49:21;96881.72;;;7.85;57.67
67397;BME280;57728;50.448;18.824;2023-01-15T06:51:23;96884.50;;;7.90;57.83
67397;BME280;57728;50.448;18.824;2023-01-15T06:53:25;96830.94;;;7.51;58.02
67397;BME280;57728;50.448;18.824;2023-01-15T06:55:26;96892.41;;;7.91;57.92
67397;BME280;57728;50.448;18.824;2023-01-15T06:57:28;96896.75;;;7.92;57.89
67397;BME280;57728;50.448;18.824;2023-01-15T06:59:30;96898.16;;;7.95;57.83
67397;BME280;57728;50.448;18.824;2023-01-15T07:01:32;96894.41;;;7.96;58.00
67397;BME280;57728;50.448;18.824;2023-01-15T07:03:34;96883.22;;;7.92;58.00
67397;BME280;57728;50.448;18.824;2023-01-15T07:05:39;96876.13;;;7.91;57.95
67397;BME280;57728;50.448;18.824;2023-01-15T07:07:40;96882.41;;;7.92;57.84
67397;BME280;57728;50.448;18.824;2023-01-15T07:09:43;96898.31;;;7.88;57.62
67397;BME280;57728;50.448;18.824;2023-01-15T07:11:44;96892.31;;;7.86;57.72
67397;BME280;57728;50.448;18.824;2023-01-15T07:13:51;96905.03;;;7.86;57.71
67397;BME280;57728;50.448;18.824;2023-01-15T07:16:06;96895.84;;;7.87;57.85
67397;BME280;57728;50.448;18.824;2023-01-15T07:18:28;96886.78;;;7.81;57.82
67397;BME280;57728;50.448;18.824;2023-01-15T07:20:31;96893.63;;;7.84;57.71
67397;BME280;57728;50.448;18.824;2023-01-15T07:22:33;96833.91;;;7.50;57.64
67397;BME280;57728;50.448;18.824;2023-01-15T07:24:35;96887.84;;;7.80;57.51
67397;BME280;57728;50.448;18.824;2023-01-15T07:26:36;96900.81;;;7.78;57.67
67397;BME280;57728;50.448;18.824;2023-01-15T07:28:39;96898.59;;;7.75;57.66
67397;BME280;57728;50.448;18.824;2023-01-15T07:30:40;96900.72;;;7.73;57.55
67397;BME280;57728;50.448;18.824;2023-01-15T07:32:41;96894.72;;;7.71;57.67
67397;BME280;57728;50.448;18.824;2023-01-15T07:34:44;96898.25;;;7.71;57.60
67397;BME280;57728;50.448;18.824;2023-01-15T07:36:45;96889.19;;;7.66;57.58
67397;BME280;57728;50.448;18.824;2023-01-15T07:38:47;96895.44;;;7.66;57.56
67397;BME280;57728;50.448;18.824;2023-01-15T07:40:49;96899.53;;;7.69;57.68
67397;BME280;57728;50.448;18.824;2023-01-15T07:43:10;96891.91;;;7.66;57.77
67397;BME280;57728;50.448;18.824;2023-01-15T07:45:30;96890.25;;;7.65;57.92
67397;BME280;57728;50.448;18.824;2023-01-15T07:47:52;96892.28;;;7.57;58.01
67397;BME280;57728;50.448;18.824;2023-01-15T07:50:19;96892.63;;;7.49;58.04
67397;BME280;57728;50.448;18.824;2023-01-15T07:52:22;96878.78;;;7.46;58.14
67397;BME280;57728;50.448;18.824;2023-01-15T07:54:24;96880.66;;;7.45;58.17
67397;BME280;57728;50.448;18.824;2023-01-15T07:56:26;96880.44;;;7.47;57.87
67397;BME280;57728;50.448;18.824;2023-01-15T07:58:27;96869.09;;;7.50;57.86
67397;BME280;57728;50.448;18.824;2023-01-15T08:00:29;96887.38;;;7.43;57.88
67397;BME280;57728;50.448;18.824;2023-01-15T08:02:31;96883.38;;;7.45;57.97
67397;BME280;57728;50.448;18.824;2023-01-15T08:04:32;96792.88;;;6.88;57.94
67397;BME280;57728;50.448;18.824;2023-01-15T08:06:35;96883.69;;;7.49;57.74
67397;BME280;57728;50.448;18.824;2023-01-15T08:08:36;96869.00;;;7.45;57.79
67397;BME280;57728;50.448;18.824;2023-01-15T08:10:38;96879.81;;;7.45;57.74
67397;BME280;57728;50.448;18.824;2023-01-15T08:13:00;96874.53;;;7.50;57.75
67397;BME280;57728;50.448;18.824;2023-01-15T08:15:19;96875.34;;;7.50;57.67
67397;BME280;57728;50.448;18.824;2023-01-15T08:17:21;96874.75;;;7.48;57.67
67397;BME280;57728;50.448;18.824;2023-01-15T08:19:23;96875.34;;;7.50;57.58
67397;BME280;57728;50.448;18.824;2023-01-15T08:21:25;96862.41;;;7.52;57.34
67397;BME280;57728;50.448;18.824;2023-01-15T08:23:26;96874.28;;;7.51;57.24
67397;BME280;57728;50.448;18.824;2023-01-15T08:25:28;96894.53;;;7.49;57.21
67397;BME280;57728;50.448;18.824;2023-01-15T08:27:30;96871.56;;;7.51;57.27
67397;BME280;57728;50.448;18.824;2023-01-15T08:29:31;96862.72;;;7.56;57.43
67397;BME280;57728;50.448;18.824;2023-01-15T08:31:33;96858.22;;;7.62;57.16
67397;BME280;57728;50.448;18.824;2023-01-15T08:33:36;96860.94;;;7.62;56.77
67397;BME280;57728;50.448;18.824;2023-01-15T08:35:37;96866.94;;;7.64;56.75
67397;BME280;57728;50.448;18.824;2023-01-15T08:37:40;96859.31;;;7.61;56.69
67397;BME280;57728;50.448;18.824;2023-01-15T08:39:42;96847.31;;;7.56;56.56
67397;BME280;57728;50.448;18.824;2023-01-15T08:41:43;96841.16;;;7.61;56.40
67397;BME280;57728;50.448;18.824;2023-01-15T08:43:45;96848.13;;;7.57;56.21
67397;BME280;57728;50.448;18.824;2023-01-15T08:45:47;96841.72;;;7.63;56.39
67397;BME280;57728;50.448;18.824;2023-01-15T08:47:48;96850.47;;;7.65;56.12
67397;BME280;57728;50.448;18.824;2023-01-15T08:49:50;96837.16;;;7.64;56.17
67397;BME280;57728;50.448;18.824;2023-01-15T08:51:51;96851.88;;;7.68;56.11
67397;BME280;57728;50.448;18.824;2023-01-15T08:53:53;96830.56;;;7.60;55.93
67397;BME280;57728;50.448;18.824;2023-01-15T08:55:55;96848.91;;;7.69;55.90
67397;BME280;57728;50.448;18.824;2023-01-15T08:57:56;96851.13;;;7.72;55.84
67397;BME280;57728;50.448;18.824;2023-01-15T08:59:57;96849.47;;;7.71;55.97
67397;BME280;57728;50.448;18.824;2023-01-15T09:01:59;96860.06;;;7.73;55.81
67397;BME280;57728;50.448;18.824;2023-01-15T09:04:01;96849.84;;;7.75;55.33
67397;BME280;57728;50.448;18.824;2023-01-15T09:06:03;96858.22;;;7.73;55.52
67397;BME280;57728;50.448;18.824;2023-01-15T09:08:07;96853.97;;;7.78;55.32
67397;BME280;57728;50.448;18.824;2023-01-15T09:10:09;96850.66;;;7.75;55.38
67397;BME280;57728;50.448;18.824;2023-01-15T09:12:10;96848.75;;;7.76;55.28
67397;BME280;57728;50.448;18.824;2023-01-15T09:14:14;96855.09;;;7.82;55.21
67397;BME280;57728;50.448;18.824;2023-01-15T09:16:16;96842.28;;;7.77;54.95
67397;BME280;57728;50.448;18.824;2023-01-15T09:18:18;96849.91;;;7.80;55.04
67397;BME280;57728;50.448;18.824;2023-01-15T09:20:21;96854.88;;;7.83;55.14
67397;BME280;57728;50.448;18.824;2023-01-15T09:22:23;96845.41;;;7.86;55.30
67397;BME280;57728;50.448;18.824;2023-01-15T09:24:27;96858.03;;;7.80;55.54
67397;BME280;57728;50.448;18.824;2023-01-15T09:26:36;96835.13;;;7.71;55.94
67397;BME280;57728;50.448;18.824;2023-01-15T09:28:39;96826.56;;;7.62;56.33
67397;BME280;57728;50.448;18.824;2023-01-15T09:30:40;96831.75;;;7.52;56.71
67397;BME280;57728;50.448;18.824;2023-01-15T09:32:42;96841.53;;;7.53;57.11
67397;BME280;57728;50.448;18.824;2023-01-15T09:34:43;96820.50;;;7.43;57.33
67397;BME280;57728;50.448;18.824;2023-01-15T09:36:45;96806.84;;;7.38;57.67
67397;BME280;57728;50.448;18.824;2023-01-15T09:38:48;96754.72;;;7.02;57.71
67397;BME280;57728;50.448;18.824;2023-01-15T09:40:54;96814.84;;;7.45;57.74
67397;BME280;57728;50.448;18.824;2023-01-15T09:43:06;96834.03;;;7.43;57.78
67397;BME280;57728;50.448;18.824;2023-01-15T09:47:59;96823.81;;;7.45;57.96
67397;BME280;57728;50.448;18.824;2023-01-15T09:55:21;96810.03;;;7.47;58.23
67397;BME280;57728;50.448;18.824;2023-01-15T09:57:28;96790.16;;;7.41;58.01
67397;BME280;57728;50.448;18.824;2023-01-15T09:59:40;96786.47;;;7.47;58.26
67397;BME280;57728;50.448;18.824;2023-01-15T10:01:48;96789.16;;;7.47;58.28
67397;BME280;57728;50.448;18.824;2023-01-15T10:04:11;96784.81;;;7.46;58.23
67397;BME280;57728;50.448;18.824;2023-01-15T10:06:32;96782.34;;;7.45;58.32
67397;BME280;57728;50.448;18.824;2023-01-15T10:08:49;96785.88;;;7.45;58.73
67397;BME280;57728;50.448;18.824;2023-01-15T10:11:03;96779.31;;;7.41;58.98
67397;BME280;57728;50.448;18.824;2023-01-15T10:13:52;96771.19;;;7.41;59.22
67397;BME280;57728;50.448;18.824;2023-01-15T10:15:56;96771.06;;;7.36;59.58
67397;BME280;57728;50.448;18.824;2023-01-15T10:17:59;96765.56;;;7.31;59.77
67397;BME280;57728;50.448;18.824;2023-01-15T10:20:01;96749.38;;;7.19;60.21
67397;BME280;57728;50.448;18.824;2023-01-15T10:22:19;96752.31;;;7.17;60.74
67397;BME280;57728;50.448;18.824;2023-01-15T10:24:39;96762.47;;;7.10;61.30
67397;BME280;57728;50.448;18.824;2023-01-15T10:26:56;96748.47;;;7.01;61.99
67397;BME280;57728;50.448;18.824;2023-01-15T10:34:29;96758.25;;;6.91;63.40
67397;BME280;57728;50.448;18.824;2023-01-15T10:37:03;96734.28;;;6.82;63.38
67397;BME280;57728;50.448;18.824;2023-01-15T10:41:44;96749.66;;;6.94;63.68
67397;BME280;57728;50.448;18.824;2023-01-15T10:46:34;96744.38;;;6.99;63.58
67397;BME280;57728;50.448;18.824;2023-01-15T10:48:56;96733.06;;;7.02;63.65
67397;BME280;57728;50.448;18.824;2023-01-15T10:51:12;96728.47;;;7.02;63.70
67397;BME280;57728;50.448;18.824;2023-01-15T10:53:41;96732.09;;;7.08;63.75
67397;BME280;57728;50.448;18.824;2023-01-15T10:55:50;96728.94;;;7.11;63.66
67397;BME280;57728;50.448;18.824;2023-01-15T10:58:11;96725.13;;;7.12;63.96
67397;BME280;57728;50.448;18.824;2023-01-15T11:00:22;96719.47;;;7.14;63.92
67397;BME280;57728;50.448;18.824;2023-01-15T11:02:49;96705.72;;;7.15;64.06
67397;BME280;57728;50.448;18.824;2023-01-15T11:05:20;96658.72;;;6.93;64.16
67397;BME280;57728;50.448;18.824;2023-01-15T11:07:35;96654.16;;;6.93;64.24
67397;BME280;57728;50.448;18.824;2023-01-15T11:09:48;96629.94;;;6.86;64.39
67397;BME280;57728;50.448;18.824;2023-01-15T11:14:36;96675.41;;;7.30;64.61
67397;BME280;57728;50.448;18.824;2023-01-15T11:16:58;96680.31;;;7.33;64.56
67397;BME280;57728;50.448;18.824;2023-01-15T11:19:29;96681.16;;;7.34;64.63
67397;BME280;57728;50.448;18.824;2023-01-15T11:21:41;96666.06;;;7.38;64.82
67397;BME280;57728;50.448;18.824;2023-01-15T11:23:44;96663.78;;;7.30;64.65
67397;BME280;57728;50.448;18.824;2023-01-15T11:25:50;96674.19;;;7.38;64.50
67397;BME280;57728;50.448;18.824;2023-01-15T11:28:01;96670.66;;;7.37;64.33
67397;BME280;57728;50.448;18.824;2023-01-15T11:30:30;96668.19;;;7.36;64.40
67397;BME280;57728;50.448;18.824;2023-01-15T11:32:37;96658.59;;;7.28;64.49
67397;BME280;57728;50.448;18.824;2023-01-15T11:34:51;96670.41;;;7.39;64.36
67397;BME280;57728;50.448;18.824;2023-01-15T11:37:04;96669.84;;;7.37;64.24
67397;BME280;57728;50.448;18.824;2023-01-15T11:39:29;96659.03;;;7.37;64.03
67397;BME280;57728;50.448;18.824;2023-01-15T11:41:33;96659.59;;;7.39;63.74
67397;BME280;57728;50.448;18.824;2023-01-15T11:43:57;96646.94;;;7.28;63.60
67397;BME280;57728;50.448;18.824;2023-01-15T11:46:30;96654.41;;;7.37;63.59
67397;BME280;57728;50.448;18.824;2023-01-15T11:48:51;96650.00;;;7.31;63.03
67397;BME280;57728;50.448;18.824;2023-01-15T11:51:16;96626.81;;;7.23;63.01
67397;BME280;57728;50.448;18.824;2023-01-15T11:53:26;96648.09;;;7.32;63.21